Time;durP1;ratioP1;P1;durP2;ratioP2;P2;SDS_P1;SDS_P2;PMS_P1;PMS_P2;Temp;Humidity;BMP_temperature;BMP_pressure;BME280_temperature;BME280_humidity;BME280_pressure;Samples;Min_cycle;Max_cycle;Signal;HPM_P1;HPM_P2
2021/01/03 00:00:31;;;;;;;36.13;17.98;;;4.60;59.50;;;;;;5075713;28;20029;-75
2021/01/03 00:02:58;;;;;;;31.63;16.00;;;4.70;59.60;;;;;;5075704;28;20020;-74
2021/01/03 00:05:30;;;;;;;39.15;19.13;;;4.70;59.50;;;;;;5075849;28;20028;-75
2021/01/03 00:07:57;;;;;;;37.22;18.35;;;4.60;59.40;;;;;;5061478;28;20470;-75
2021/01/03 00:10:23;;;;;;;33.17;16.23;;;4.60;59.30;;;;;;5055333;28;20098;-75
2021/01/03 00:12:49;;;;;;;44.60;21.83;;;4.60;59.50;;;;;;5055406;28;20028;-75
2021/01/03 00:15:18;;;;;;;45.53;20.23;;;4.50;59.90;;;;;;5055731;28;20016;-75
2021/01/03 00:17:44;;;;;;;42.75;20.17;;;4.40;60.30;;;;;;5055326;28;20025;-75
2021/01/03 00:20:14;;;;;;;43.63;20.27;;;4.40;60.80;;;;;;5057432;28;20127;-75
2021/01/03 00:22:40;;;;;;;46.38;20.92;;;4.30;60.90;;;;;;5054237;28;20045;-74
2021/01/03 00:25:07;;;;;;;42.35;20.58;;;4.30;61.10;;;;;;5052375;28;20098;-74
2021/01/03 00:27:33;;;;;;;41.58;20.10;;;4.30;61.30;;;;;;5054272;28;20041;-74
2021/01/03 00:29:58;;;;;;;44.33;19.55;;;4.30;61.50;;;;;;5053874;28;20017;-74
2021/01/03 00:32:24;;;;;;;41.97;21.23;;;4.30;61.60;;;;;;5055014;28;20027;-74
2021/01/03 00:34:50;;;;;;;43.95;20.42;;;4.30;61.80;;;;;;5054892;28;20029;-74
2021/01/03 00:37:21;;;;;;;38.13;19.73;;;4.30;62.60;;;;;;5065971;28;20024;-75
2021/01/03 00:39:49;;;;;;;39.33;20.10;;;4.20;61.90;;;;;;5054953;28;20091;-75
2021/01/03 00:42:15;;;;;;;42.00;20.33;;;4.20;62.10;;;;;;5071642;28;20054;-74
2021/01/03 00:44:41;;;;;;;42.90;20.95;;;4.20;62.50;;;;;;5074870;28;20039;-75
2021/01/03 00:47:07;;;;;;;46.72;20.95;;;4.20;62.70;;;;;;5074797;28;20103;-75
2021/01/03 00:49:33;;;;;;;39.08;19.58;;;4.20;62.90;;;;;;5074978;28;20539;-75
2021/01/03 00:51:59;;;;;;;40.85;19.48;;;4.20;63.00;;;;;;5074772;28;20382;-75
2021/01/03 00:54:25;;;;;;;36.80;17.42;;;4.30;63.10;;;;;;5074747;28;20462;-75
2021/01/03 00:56:50;;;;;;;34.33;18.23;;;4.40;63.10;;;;;;5074632;28;20032;-75
2021/01/03 00:59:16;;;;;;;46.28;20.05;;;4.50;63.10;;;;;;5074803;28;20421;-75
2021/01/03 01:01:42;;;;;;;40.17;18.92;;;4.50;63.10;;;;;;5057179;28;20039;-75
2021/01/03 01:04:07;;;;;;;35.53;19.25;;;4.60;63.20;;;;;;5054393;28;20489;-76
2021/01/03 01:06:33;;;;;;;40.92;19.73;;;4.60;63.20;;;;;;5059692;28;20032;-75
2021/01/03 01:08:59;;;;;;;40.60;20.42;;;4.70;63.00;;;;;;5073784;28;20074;-75
2021/01/03 01:11:25;;;;;;;40.53;19.17;;;4.80;62.80;;;;;;5074224;28;20052;-76
2021/01/03 01:13:51;;;;;;;35.10;17.23;;;4.90;62.60;;;;;;5058791;28;20433;-76
2021/01/03 01:16:16;;;;;;;32.60;16.92;;;4.90;62.40;;;;;;5054307;28;20021;-75
2021/01/03 01:18:42;;;;;;;30.02;15.20;;;5.00;62.30;;;;;;5054064;28;20053;-75
2021/01/03 01:21:08;;;;;;;33.55;15.02;;;5.20;62.10;;;;;;5054158;28;20047;-75
2021/01/03 01:23:34;;;;;;;37.55;17.70;;;5.20;61.90;;;;;;5053623;28;20078;-75
2021/01/03 01:25:59;;;;;;;30.83;16.23;;;5.30;61.80;;;;;;5059441;28;20027;-75
2021/01/03 01:28:26;;;;;;;33.10;16.35;;;5.40;61.50;;;;;;5073731;28;20029;-76
2021/01/03 01:30:51;;;;;;;28.10;13.82;;;5.50;61.40;;;;;;5068079;28;20107;-75
2021/01/03 01:33:18;;;;;;;30.05;14.90;;;5.60;61.30;;;;;;5068998;28;20036;-76
2021/01/03 01:35:45;;;;;;;34.05;16.10;;;5.60;61.10;;;;;;5052787;28;20033;-76
2021/01/03 01:38:10;;;;;;;37.90;17.85;;;5.70;60.80;;;;;;5054203;28;20497;-76
2021/01/03 01:40:38;;;;;;;35.33;17.10;;;5.70;60.50;;;;;;5053955;28;20032;-75
2021/01/03 01:43:07;;;;;;;39.50;19.10;;;5.80;60.30;;;;;;5053863;28;20083;-75
2021/01/03 01:45:36;;;;;;;27.52;15.55;;;5.80;60.20;;;;;;5052516;28;20116;-75
2021/01/03 01:48:07;;;;;;;31.90;15.57;;;5.90;60.10;;;;;;5053443;28;20078;-75
2021/01/03 01:50:57;;;;;;;29.27;15.10;;;5.90;60.00;;;;;;5053733;28;20086;-76
2021/01/03 01:53:34;;;;;;;32.33;15.30;;;6.00;60.00;;;;;;5053526;28;20029;-76
2021/01/03 01:56:15;;;;;;;24.55;11.85;;;6.00;59.90;;;;;;5053948;28;20017;-75
2021/01/03 01:58:55;;;;;;;25.58;12.60;;;6.10;59.90;;;;;;5053631;28;20028;-76
2021/01/03 02:01:28;;;;;;;28.67;15.32;;;6.10;59.80;;;;;;5052418;28;20456;-76
2021/01/03 02:04:00;;;;;;;28.50;14.63;;;6.20;59.80;;;;;;5053819;28;20029;-76
2021/01/03 02:07:06;;;;;;;23.70;13.40;;;6.20;59.50;;;;;;5064460;28;20052;-76
2021/01/03 02:10:08;;;;;;;32.25;16.25;;;6.20;59.40;;;;;;5066054;28;20064;-74
2021/01/03 02:12:40;;;;;;;31.30;15.25;;;6.30;59.30;;;;;;5070522;28;20082;-75
2021/01/03 02:15:26;;;;;;;27.75;13.90;;;6.30;59.10;;;;;;5054603;28;20115;-75
2021/01/03 02:17:52;;;;;;;25.52;13.95;;;6.40;59.10;;;;;;5091860;28;20446;-76
2021/01/03 02:20:18;;;;;;;34.28;16.48;;;6.40;59.10;;;;;;5084685;28;20035;-76
2021/01/03 02:23:06;;;;;;;31.80;14.80;;;6.40;58.90;;;;;;5090463;28;20071;-76
2021/01/03 02:25:32;;;;;;;26.95;13.07;;;6.40;58.80;;;;;;5088610;28;20043;-76
2021/01/03 02:28:19;;;;;;;28.27;15.70;;;6.40;58.90;;;;;;5090898;28;20044;-75
2021/01/03 02:30:51;;;;;;;29.83;16.35;;;6.40;58.70;;;;;;5087808;28;20024;-75
2021/01/03 02:33:20;;;;;;;31.55;16.10;;;6.40;58.50;;;;;;5067802;28;20016;-74
2021/01/03 02:35:48;;;;;;;33.95;17.55;;;6.30;58.40;;;;;;5090099;28;20056;-75
2021/01/03 02:38:21;;;;;;;31.08;16.73;;;6.30;58.30;;;;;;5057429;28;20032;-75
2021/01/03 02:40:46;;;;;;;29.58;15.73;;;6.30;58.30;;;;;;5074207;28;20066;-75
2021/01/03 02:43:12;;;;;;;31.77;15.50;;;6.30;58.40;;;;;;5074261;28;20036;-75
2021/01/03 02:45:38;;;;;;;36.45;18.23;;;6.30;58.40;;;;;;5076033;28;20038;-74
2021/01/03 02:48:12;;;;;;;33.42;16.35;;;6.20;58.40;;;;;;5085888;28;20112;-75
2021/01/03 02:50:38;;;;;;;32.28;17.55;;;6.20;58.30;;;;;;5076065;28;20021;-74
2021/01/03 02:53:04;;;;;;;34.45;18.05;;;6.20;58.40;;;;;;5075793;28;20074;-75
2021/01/03 02:55:30;;;;;;;31.33;17.08;;;6.20;58.40;;;;;;5075280;28;20027;-75
2021/01/03 02:57:55;;;;;;;35.25;17.77;;;6.10;58.30;;;;;;5056030;28;20033;-75
2021/01/03 03:00:25;;;;;;;33.63;17.05;;;6.10;58.40;;;;;;5071362;28;20029;-75
2021/01/03 03:02:52;;;;;;;30.70;15.57;;;6.00;58.40;;;;;;5056538;28;20125;-75
2021/01/03 03:05:19;;;;;;;32.30;17.80;;;6.00;58.50;;;;;;5055830;28;20025;-75
2021/01/03 03:07:45;;;;;;;33.70;18.00;;;6.00;58.50;;;;;;5055627;28;20028;-75
2021/01/03 03:10:11;;;;;;;42.72;20.90;;;6.00;58.50;;;;;;5055735;28;20035;-75
2021/01/03 03:12:37;;;;;;;41.25;21.40;;;6.00;58.60;;;;;;5055677;28;20027;-75
2021/01/03 03:15:10;;;;;;;40.58;21.13;;;6.00;58.70;;;;;;5054492;28;20021;-75
2021/01/03 03:17:36;;;;;;;40.88;20.95;;;5.90;58.80;;;;;;5055554;28;20100;-75
2021/01/03 03:20:03;;;;;;;42.40;20.80;;;5.90;58.90;;;;;;5055665;28;20477;-75
2021/01/03 03:22:29;;;;;;;43.05;21.48;;;5.80;58.90;;;;;;5055287;28;20037;-75
2021/01/03 03:24:55;;;;;;;45.47;21.38;;;5.80;59.00;;;;;;5055593;28;20040;-75
2021/01/03 03:27:21;;;;;;;48.85;24.08;;;5.80;59.10;;;;;;5055303;28;20029;-75
2021/01/03 03:29:47;;;;;;;56.78;25.30;;;5.80;59.10;;;;;;5055491;28;20064;-75
2021/01/03 03:32:13;;;;;;;48.08;23.88;;;5.80;59.20;;;;;;5055176;28;20027;-75
2021/01/03 03:34:39;;;;;;;51.42;25.88;;;5.70;59.20;;;;;;5055301;28;20429;-75
2021/01/03 03:37:05;;;;;;;55.80;25.95;;;5.70;59.30;;;;;;5054022;28;20063;-75
2021/01/03 03:39:31;;;;;;;52.58;25.35;;;5.60;59.30;;;;;;5053985;28;20049;-75
2021/01/03 03:41:58;;;;;;;57.67;27.85;;;5.60;59.40;;;;;;5055275;28;20021;-75
2021/01/03 03:44:24;;;;;;;51.60;25.33;;;5.60;59.40;;;;;;5055191;28;20531;-75
2021/01/03 03:46:54;;;;;;;57.28;27.60;;;5.60;59.50;;;;;;5054348;28;20033;-75
2021/01/03 03:49:21;;;;;;;53.47;26.73;;;5.50;59.50;;;;;;5055414;28;20111;-75
2021/01/03 03:51:52;;;;;;;51.97;25.73;;;5.50;59.60;;;;;;5055020;28;20028;-75
2021/01/03 03:54:18;;;;;;;54.92;26.00;;;5.50;59.70;;;;;;5055087;28;20017;-75
2021/01/03 03:56:56;;;;;;;57.38;26.98;;;5.50;59.80;;;;;;5054801;28;20394;-75
2021/01/03 03:59:24;;;;;;;47.35;24.80;;;5.50;59.80;;;;;;5054912;28;20040;-75
2021/01/03 04:01:50;;;;;;;55.42;27.08;;;5.50;59.90;;;;;;5054837;28;20029;-75
2021/01/03 04:04:16;;;;;;;49.97;24.73;;;5.50;60.00;;;;;;5054791;28;20017;-76
2021/01/03 04:06:42;;;;;;;51.85;24.33;;;5.40;59.90;;;;;;5054611;28;20036;-75
2021/01/03 04:09:09;;;;;;;53.10;25.55;;;5.50;60.00;;;;;;5053407;28;20498;-75
2021/01/03 04:11:39;;;;;;;53.65;26.35;;;5.50;60.10;;;;;;5054692;28;20048;-76
2021/01/03 04:14:06;;;;;;;45.28;22.67;;;5.40;60.10;;;;;;5053391;28;20033;-75
2021/01/03 04:16:31;;;;;;;54.42;25.25;;;5.40;60.10;;;;;;5054450;28;20107;-75
2021/01/03 04:18:57;;;;;;;47.67;22.83;;;5.50;60.10;;;;;;5054568;28;20021;-75
2021/01/03 04:21:23;;;;;;;49.30;23.80;;;5.50;60.10;;;;;;5057303;28;20028;-75
2021/01/03 04:23:49;;;;;;;42.97;22.30;;;5.50;60.00;;;;;;5053147;28;20447;-75
2021/01/03 04:26:20;;;;;;;44.17;23.05;;;5.60;60.00;;;;;;5053001;28;20029;-75
2021/01/03 04:28:47;;;;;;;43.53;21.60;;;5.60;60.00;;;;;;5052365;28;20368;-75
2021/01/03 04:31:19;;;;;;;48.90;23.10;;;5.60;60.00;;;;;;5054176;28;20379;-75
2021/01/03 04:33:46;;;;;;;47.40;22.73;;;5.60;59.90;;;;;;5054232;28;20025;-75
2021/01/03 04:36:17;;;;;;;49.08;23.08;;;5.70;59.90;;;;;;5070893;28;20462;-75
2021/01/03 04:38:43;;;;;;;46.60;23.75;;;5.70;59.80;;;;;;5074184;28;20100;-75
2021/01/03 04:41:39;;;;;;;42.30;20.92;;;5.70;59.80;;;;;;5074045;28;20096;-75
2021/01/03 04:44:31;;;;;;;47.25;23.25;;;5.70;59.70;;;;;;5071734;28;20087;-75
2021/01/03 04:47:06;;;;;;;46.28;23.73;;;5.70;59.60;;;;;;5061346;28;20428;-75
2021/01/03 04:49:39;;;;;;;42.58;20.15;;;5.80;59.60;;;;;;5071783;28;20037;-75
2021/01/03 04:52:23;;;;;;;48.58;24.23;;;5.80;59.60;;;;;;5054895;28;20025;-75
2021/01/03 04:55:05;;;;;;;44.92;23.23;;;5.80;59.50;;;;;;5071655;28;20076;-75
2021/01/03 04:57:47;;;;;;;41.78;21.27;;;5.80;59.40;;;;;;5054005;28;20075;-75
2021/01/03 05:00:16;;;;;;;44.55;22.05;;;5.90;59.50;;;;;;5071490;28;20024;-75
2021/01/03 05:02:44;;;;;;;45.03;22.95;;;5.90;59.50;;;;;;5071530;28;20170;-75
2021/01/03 05:05:36;;;;;;;49.22;23.60;;;5.90;59.30;;;;;;5071429;28;20082;-75
2021/01/03 05:08:32;;;;;;;48.97;23.88;;;5.90;59.30;;;;;;5071247;28;20041;-75
2021/01/03 05:11:13;;;;;;;53.42;24.55;;;5.90;59.20;;;;;;5066708;28;20028;-75
2021/01/03 05:14:02;;;;;;;52.13;25.52;;;5.90;59.10;;;;;;5070532;28;20029;-75
2021/01/03 05:16:28;;;;;;;51.35;22.65;;;5.90;59.10;;;;;;5042301;28;20033;-75
2021/01/03 05:18:54;;;;;;;48.03;23.20;;;5.90;59.20;;;;;;5072172;28;20031;-75
2021/01/03 05:21:19;;;;;;;48.78;24.80;;;5.90;59.10;;;;;;5056787;28;20112;-75
2021/01/03 05:24:03;;;;;;;51.25;25.52;;;5.90;59.60;;;;;;5053938;28;20406;-75
2021/01/03 05:26:33;;;;;;;45.03;21.88;;;5.90;59.00;;;;;;5054050;28;20024;-75
2021/01/03 05:28:59;;;;;;;43.55;20.83;;;5.90;59.00;;;;;;5054052;28;20075;-75
2021/01/03 05:31:27;;;;;;;45.63;22.48;;;6.00;59.00;;;;;;5054026;28;20053;-75
2021/01/03 05:33:57;;;;;;;40.85;20.67;;;6.00;58.90;;;;;;5053993;28;20071;-75
2021/01/03 05:36:44;;;;;;;41.75;21.23;;;6.00;58.90;;;;;;5053880;28;20157;-75
2021/01/03 05:39:18;;;;;;;46.63;21.15;;;6.10;58.90;;;;;;5052666;28;20021;-75
2021/01/03 05:41:43;;;;;;;37.05;19.15;;;6.10;58.90;;;;;;5053888;28;20079;-75
2021/01/03 05:44:34;;;;;;;49.00;23.05;;;6.10;58.90;;;;;;5053861;28;20025;-75
2021/01/03 05:47:25;;;;;;;41.35;20.83;;;6.10;58.70;;;;;;5053355;28;20033;-75
2021/01/03 05:50:33;;;;;;;52.38;23.90;;;6.10;58.70;;;;;;5053711;28;20028;-75
2021/01/03 05:53:12;;;;;;;39.55;19.10;;;6.10;58.70;;;;;;5051618;28;20017;-76
2021/01/03 05:55:49;;;;;;;46.70;21.13;;;6.10;58.70;;;;;;5051765;28;20037;-75
2021/01/03 05:58:23;;;;;;;48.58;22.88;;;6.10;58.70;;;;;;5051548;28;20025;-75
2021/01/03 06:00:50;;;;;;;48.33;23.25;;;6.10;58.70;;;;;;5051593;28;20033;-75
2021/01/03 06:03:15;;;;;;;46.08;21.42;;;6.10;58.70;;;;;;5051446;28;20568;-75
2021/01/03 06:05:50;;;;;;;44.42;20.75;;;6.10;58.80;;;;;;5051393;28;20064;-75
2021/01/03 06:08:25;;;;;;;46.22;22.38;;;6.10;58.80;;;;;;5051281;28;20095;-75
2021/01/03 06:10:52;;;;;;;43.88;20.67;;;6.20;58.90;;;;;;5051380;28;20020;-75
2021/01/03 06:13:21;;;;;;;51.10;22.83;;;6.20;59.00;;;;;;5051288;28;20043;-75
2021/01/03 06:15:58;;;;;;;51.08;23.40;;;6.20;59.10;;;;;;5051344;28;20494;-75
2021/01/03 06:18:41;;;;;;;54.30;24.48;;;6.20;59.10;;;;;;5051565;28;20556;-75
2021/01/03 06:21:49;;;;;;;44.55;21.30;;;6.20;59.20;;;;;;5051486;28;20040;-75
2021/01/03 06:24:22;;;;;;;50.55;22.63;;;6.20;59.30;;;;;;5010348;28;20081;-75
2021/01/03 06:26:56;;;;;;;46.75;21.83;;;6.20;59.40;;;;;;5012068;28;20038;-75
2021/01/03 06:29:41;;;;;;;42.17;19.70;;;6.20;59.50;;;;;;5011195;28;20041;-75
2021/01/03 06:32:16;;;;;;;50.63;22.70;;;6.20;59.60;;;;;;5011880;28;20029;-76
2021/01/03 06:35:12;;;;;;;45.25;19.52;;;6.20;59.80;;;;;;5011467;28;20395;-75
2021/01/03 06:37:56;;;;;;;41.80;20.27;;;6.20;59.80;;;;;;5011132;28;20061;-76
2021/01/03 06:40:29;;;;;;;41.97;19.70;;;6.20;59.90;;;;;;5011819;28;20073;-75
2021/01/03 06:43:23;;;;;;;42.27;19.17;;;6.10;59.90;;;;;;5011492;28;20565;-76
2021/01/03 06:46:07;;;;;;;39.90;17.63;;;6.10;60.10;;;;;;5011527;28;20044;-76
2021/01/03 06:48:33;;;;;;;;;;;6.20;60.30;;;;;;5011804;28;20101;-76
2021/01/03 06:51:22;;;;;;;41.47;19.33;;;6.20;60.10;;;;;;5011269;28;20442;-76
2021/01/03 06:54:31;;;;;;;41.08;19.40;;;6.20;60.30;;;;;;5011365;28;20110;-76
2021/01/03 06:57:38;;;;;;;37.53;18.70;;;6.20;60.50;;;;;;5011551;28;20434;-76
2021/01/03 07:00:18;;;;;;;43.72;19.50;;;6.10;60.60;;;;;;5053257;28;20064;-76
2021/01/03 07:02:50;;;;;;;39.90;18.40;;;6.10;60.60;;;;;;5052858;28;20017;-76
2021/01/03 07:05:16;;;;;;;36.35;17.80;;;6.10;60.70;;;;;;5052914;28;20158;-76
2021/01/03 07:07:56;;;;;;;41.03;20.35;;;6.10;60.80;;;;;;5052744;28;20431;-76
2021/01/03 07:10:40;;;;;;;43.30;21.33;;;6.10;61.00;;;;;;5053101;28;20462;-76
2021/01/03 07:13:27;;;;;;;39.30;18.13;;;6.10;60.90;;;;;;5052693;28;20092;-76
2021/01/03 07:15:55;;;;;;;38.45;16.10;;;6.10;60.90;;;;;;5052039;28;20029;-75
2021/01/03 07:18:38;;;;;;;35.30;17.67;;;6.10;60.80;;;;;;5051542;28;20029;-75
2021/01/03 07:21:04;;;;;;;31.90;15.95;;;6.10;61.10;;;;;;5055243;28;20017;-76
2021/01/03 07:23:40;;;;;;;36.03;18.15;;;6.10;61.10;;;;;;5056233;28;20072;-75
2021/01/03 07:26:30;;;;;;;27.35;14.50;;;6.10;61.30;;;;;;5056254;28;20474;-75
2021/01/03 07:29:13;;;;;;;32.22;16.92;;;6.10;61.40;;;;;;5056624;28;20025;-76
2021/01/03 07:31:41;;;;;;;28.90;14.35;;;6.10;61.50;;;;;;5056549;28;20049;-76
2021/01/03 07:34:32;;;;;;;29.85;15.20;;;6.20;61.40;;;;;;5056206;28;20100;-76
2021/01/03 07:37:13;;;;;;;27.20;14.13;;;6.20;61.60;;;;;;5054945;28;20075;-76
2021/01/03 07:40:04;;;;;;;29.52;15.32;;;6.20;61.60;;;;;;5056106;28;20052;-76
2021/01/03 07:42:43;;;;;;;28.45;14.10;;;6.20;61.70;;;;;;5056252;28;20028;-75
2021/01/03 07:45:32;;;;;;;29.35;14.65;;;6.20;61.60;;;;;;5055991;28;20021;-76
2021/01/03 07:47:59;;;;;;;29.70;15.02;;;6.20;61.50;;;;;;5051156;28;20454;-75
2021/01/03 07:50:26;;;;;;;22.88;13.15;;;6.20;61.60;;;;;;5055861;28;20017;-76
2021/01/03 07:52:55;;;;;;;25.52;13.88;;;6.20;61.70;;;;;;5056074;28;20024;-76
2021/01/03 07:55:27;;;;;;;23.65;13.48;;;6.10;61.70;;;;;;5055739;28;20493;-76
2021/01/03 07:58:02;;;;;;;25.25;13.88;;;6.10;61.80;;;;;;5055740;28;20021;-76
2021/01/03 08:00:34;;;;;;;23.30;13.20;;;6.10;61.90;;;;;;5055946;28;20032;-75
2021/01/03 08:03:08;;;;;;;29.05;14.90;;;6.10;62.00;;;;;;5055988;28;20100;-76
2021/01/03 08:05:34;;;;;;;;;;;6.00;62.10;;;;;;5057331;28;20025;-76
2021/01/03 08:08:22;;;;;;;27.60;14.25;;;6.10;61.80;;;;;;5056453;28;19908;-76
2021/01/03 08:10:51;;;;;;;30.67;15.93;;;6.10;61.90;;;;;;5054649;28;20478;-75
2021/01/03 08:13:31;;;;;;;23.48;12.82;;;6.00;62.30;;;;;;5055627;28;20036;-75
2021/01/03 08:15:58;;;;;;;27.23;13.98;;;6.00;62.30;;;;;;5055574;28;20083;-75
2021/01/03 08:18:27;;;;;;;26.02;12.77;;;6.00;62.40;;;;;;5055471;28;20051;-75
2021/01/03 08:21:06;;;;;;;22.95;13.13;;;6.10;62.60;;;;;;5055238;28;20043;-76
2021/01/03 08:23:34;;;;;;;25.33;13.45;;;6.10;63.10;;;;;;5057528;28;20063;-75
2021/01/03 08:26:28;;;;;;;23.02;12.52;;;6.10;63.00;;;;;;5052784;28;20020;-75
2021/01/03 08:29:13;;;;;;;22.17;13.05;;;6.10;63.00;;;;;;5054133;28;20099;-75
2021/01/03 08:31:48;;;;;;;22.65;12.23;;;6.10;63.00;;;;;;5054387;28;20509;-75
2021/01/03 08:34:18;;;;;;;20.10;12.18;;;6.20;63.10;;;;;;5054954;28;20029;-75
2021/01/03 08:36:43;;;;;;;24.92;13.77;;;6.20;63.10;;;;;;5053553;28;20371;-75
2021/01/03 08:39:13;;;;;;;27.63;13.40;;;6.20;63.10;;;;;;5055109;28;20078;-74
2021/01/03 08:42:10;;;;;;;25.15;13.20;;;6.20;63.00;;;;;;5054766;28;20032;-75
2021/01/03 08:44:40;;;;;;;27.90;15.05;;;6.20;63.00;;;;;;5055049;28;20056;-75
2021/01/03 08:47:10;;;;;;;30.15;15.52;;;6.20;63.00;;;;;;5054615;28;20338;-75
2021/01/03 08:49:36;;;;;;;30.92;16.15;;;6.20;63.10;;;;;;5053391;28;20104;-75
2021/01/03 08:52:16;;;;;;;23.98;13.68;;;6.20;63.20;;;;;;5054821;28;20382;-75
2021/01/03 08:55:02;;;;;;;26.05;14.60;;;6.30;63.20;;;;;;5054539;28;20090;-75
2021/01/03 08:57:28;;;;;;;26.27;13.55;;;6.30;63.30;;;;;;5053349;28;20462;-75
2021/01/03 08:59:54;;;;;;;26.27;14.80;;;6.30;63.40;;;;;;5054501;28;20033;-75
2021/01/03 09:02:29;;;;;;;31.98;16.80;;;6.20;63.30;;;;;;5054694;28;20374;-75
2021/01/03 09:05:02;;;;;;;27.98;15.50;;;6.30;63.40;;;;;;5054605;28;20056;-74
2021/01/03 09:07:37;;;;;;;35.58;17.50;;;6.20;63.30;;;;;;5053020;28;20386;-75
2021/01/03 09:10:07;;;;;;;30.17;16.83;;;6.20;63.20;;;;;;5054271;28;20028;-75
2021/01/03 09:12:41;;;;;;;28.42;15.60;;;6.20;63.30;;;;;;5053188;28;20017;-75
2021/01/03 09:15:21;;;;;;;29.13;15.38;;;6.20;63.30;;;;;;5052787;28;20025;-75
2021/01/03 09:18:09;;;;;;;26.83;14.40;;;6.10;63.30;;;;;;5053481;28;20028;-75
2021/01/03 09:20:42;;;;;;;28.70;16.27;;;6.10;63.50;;;;;;5054319;28;20539;-75
2021/01/03 09:23:12;;;;;;;29.98;15.18;;;6.10;63.60;;;;;;5052497;28;20451;-75
2021/01/03 09:25:40;;;;;;;27.30;14.93;;;6.10;63.70;;;;;;5053996;28;20032;-74
2021/01/03 09:28:28;;;;;;;32.42;17.00;;;6.10;63.70;;;;;;5053845;28;20466;-74
2021/01/03 09:31:24;;;;;;;34.47;16.25;;;6.10;63.90;;;;;;5054056;28;20053;-74
2021/01/03 09:33:55;;;;;;;28.02;14.63;;;6.10;63.90;;;;;;5053794;28;20025;-74
2021/01/03 09:36:27;;;;;;;28.77;15.40;;;6.10;64.00;;;;;;5053895;28;20102;-74
2021/01/03 09:39:26;;;;;;;25.63;13.15;;;6.10;64.10;;;;;;5053711;28;20017;-75
2021/01/03 09:42:15;;;;;;;24.40;12.93;;;6.20;64.10;;;;;;5053075;28;20052;-75
2021/01/03 09:44:50;;;;;;;28.80;14.68;;;6.20;64.40;;;;;;5053076;28;20025;-75
2021/01/03 09:47:16;;;;;;;29.83;15.10;;;6.30;64.40;;;;;;5053907;28;20025;-75
2021/01/03 09:49:46;;;;;;;31.65;15.70;;;6.30;64.10;;;;;;5052172;28;20029;-75
2021/01/03 09:52:40;;;;;;;28.42;14.82;;;6.40;63.90;;;;;;5053356;28;20033;-75
2021/01/03 09:55:18;;;;;;;26.67;14.63;;;6.40;63.90;;;;;;5053790;28;20024;-75
2021/01/03 09:57:53;;;;;;;25.67;14.20;;;6.40;63.80;;;;;;5053716;28;20028;-75
2021/01/03 10:00:21;;;;;;;;;;;6.50;64.20;;;;;;5057320;28;20025;-75
2021/01/03 10:02:47;;;;;;;31.20;15.95;;;6.60;63.80;;;;;;5064271;28;20377;-75
2021/01/03 10:05:39;;;;;;;29.80;15.35;;;6.70;64.10;;;;;;5073340;28;20032;-76
2021/01/03 10:08:07;;;;;;;25.63;14.32;;;6.70;63.90;;;;;;5056409;28;20028;-76
2021/01/03 10:10:48;;;;;;;25.75;14.27;;;6.80;63.90;;;;;;5068671;28;20020;-76
2021/01/03 10:13:16;;;;;;;26.65;13.93;;;6.80;63.80;;;;;;5053856;28;20465;-76
2021/01/03 10:15:43;;;;;;;34.78;16.98;;;6.90;63.50;;;;;;5073267;28;20446;-76
2021/01/03 10:18:13;;;;;;;32.28;16.70;;;6.90;62.70;;;;;;5072007;28;20119;-76
2021/01/03 10:20:44;;;;;;;29.95;15.82;;;6.90;62.10;;;;;;5070487;28;20017;-77
2021/01/03 10:23:29;;;;;;;31.38;16.92;;;7.00;61.90;;;;;;5053520;28;20413;-76
2021/01/03 10:25:55;;;;;;;29.33;15.93;;;6.90;61.10;;;;;;5065585;28;20040;-77
2021/01/03 10:28:20;;;;;;;32.95;16.35;;;7.00;61.10;;;;;;5050520;28;20029;-76
2021/01/03 10:30:46;;;;;;;28.33;15.20;;;7.00;61.20;;;;;;5052778;28;20025;-76
2021/01/03 10:33:12;;;;;;;30.20;15.20;;;7.10;61.40;;;;;;5052681;28;20021;-77
2021/01/03 10:35:38;;;;;;;34.55;16.67;;;7.10;61.30;;;;;;5056631;28;20025;-76
2021/01/03 10:38:08;;;;;;;28.00;15.23;;;7.20;60.70;;;;;;5071426;28;20052;-76
2021/01/03 10:40:35;;;;;;;33.28;16.80;;;7.20;60.60;;;;;;5065112;28;20021;-77
2021/01/03 10:43:00;;;;;;;32.10;17.67;;;7.30;60.60;;;;;;5053029;28;20025;-77
2021/01/03 10:45:26;;;;;;;31.48;14.93;;;7.30;60.50;;;;;;5063521;28;20103;-77
2021/01/03 10:47:52;;;;;;;29.40;16.08;;;7.40;60.60;;;;;;5072907;28;20450;-77
2021/01/03 10:50:21;;;;;;;28.45;15.75;;;7.50;60.40;;;;;;5071839;28;20028;-77
2021/01/03 10:52:47;;;;;;;30.00;17.05;;;7.50;60.10;;;;;;5073124;28;20099;-77
2021/01/03 10:55:14;;;;;;;34.00;18.20;;;7.60;60.00;;;;;;5072471;28;20063;-77
2021/01/03 10:57:40;;;;;;;33.47;18.27;;;7.70;59.70;;;;;;5065979;28;20304;-76
2021/01/03 11:00:11;;;;;;;33.47;18.88;;;7.70;59.40;;;;;;5072017;28;20086;-77
2021/01/03 11:02:37;;;;;;;28.83;15.85;;;7.70;59.00;;;;;;5077213;28;20021;-76
2021/01/03 11:05:05;;;;;;;36.97;18.63;;;7.80;59.00;;;;;;5076682;28;20020;-77
2021/01/03 11:07:30;;;;;;;29.88;16.13;;;7.80;58.80;;;;;;5076522;28;20111;-77
2021/01/03 11:09:56;;;;;;;42.47;19.65;;;7.80;58.90;;;;;;5076608;28;20056;-77
2021/01/03 11:12:23;;;;;;;39.17;17.23;;;7.80;58.10;;;;;;5076892;28;20021;-77
2021/01/03 11:14:49;;;;;;;35.00;17.95;;;7.80;58.10;;;;;;5076315;28;20023;-77
2021/01/03 11:17:16;;;;;;;37.60;18.98;;;7.70;57.80;;;;;;5074440;28;20805;-76
2021/01/03 11:19:43;;;;;;;39.08;18.67;;;7.80;57.60;;;;;;5058809;28;20028;-76
2021/01/03 11:22:12;;;;;;;35.08;18.65;;;7.70;57.70;;;;;;5056662;28;20021;-77
2021/01/03 11:24:40;;;;;;;34.72;18.05;;;7.80;57.70;;;;;;5068088;28;20039;-77
2021/01/03 11:27:13;;;;;;;45.45;21.70;;;7.80;57.90;;;;;;5055874;28;20421;-77
2021/01/03 11:29:39;;;;;;;51.50;22.45;;;7.80;57.60;;;;;;5055607;28;20382;-77
2021/01/03 11:32:11;;;;;;;42.13;20.67;;;7.90;57.90;;;;;;5055411;28;20029;-77
2021/01/03 11:34:38;;;;;;;41.45;19.30;;;7.90;57.40;;;;;;5055423;28;20025;-77
2021/01/03 11:37:09;;;;;;;41.72;21.58;;;8.00;57.50;;;;;;5055356;28;20466;-77
2021/01/03 11:39:36;;;;;;;46.42;22.83;;;8.00;57.10;;;;;;5055262;28;20029;-77
2021/01/03 11:42:10;;;;;;;45.28;21.90;;;8.10;56.40;;;;;;5073854;28;20033;-76
2021/01/03 11:44:37;;;;;;;39.75;20.08;;;8.10;56.50;;;;;;5074952;28;20028;-76
2021/01/03 11:47:09;;;;;;;52.75;24.05;;;8.10;56.70;;;;;;5073773;28;20119;-75
2021/01/03 11:49:39;;;;;;;47.17;23.63;;;8.20;56.20;;;;;;5073686;28;20024;-76
2021/01/03 11:52:07;;;;;;;52.53;25.83;;;8.20;56.10;;;;;;5057362;28;20470;-77
2021/01/03 11:54:35;;;;;;;49.40;23.77;;;8.20;55.90;;;;;;5053667;28;20025;-76
2021/01/03 11:57:01;;;;;;;41.53;21.25;;;8.20;55.80;;;;;;5070512;28;20063;-76
2021/01/03 11:59:29;;;;;;;51.70;26.33;;;8.20;55.90;;;;;;5055362;28;20083;-77
2021/01/03 12:02:07;;;;;;;48.33;23.50;;;8.10;55.60;;;;;;5054606;28;20087;-75
2021/01/03 12:04:38;;;;;;;53.85;24.35;;;8.10;55.50;;;;;;5054882;28;20029;-75
2021/01/03 12:07:08;;;;;;;53.35;25.50;;;8.00;55.50;;;;;;5053174;28;20470;-76
2021/01/03 12:09:38;;;;;;;57.22;25.40;;;8.00;55.30;;;;;;5053901;28;20029;-75
2021/01/03 12:12:08;;;;;;;50.78;24.70;;;7.90;55.10;;;;;;5061176;28;20452;-76
2021/01/03 12:14:35;;;;;;;55.78;25.65;;;7.90;54.90;;;;;;5063240;28;20079;-76
2021/01/03 12:17:08;;;;;;;46.33;22.98;;;7.90;55.00;;;;;;5073211;28;20067;-76
2021/01/03 12:19:34;;;;;;;52.00;23.63;;;7.90;55.10;;;;;;5077203;28;20108;-76
2021/01/03 12:22:03;;;;;;;51.58;24.30;;;7.90;54.90;;;;;;5077145;28;20028;-76
2021/01/03 12:24:29;;;;;;;46.20;21.92;;;7.80;54.70;;;;;;5062577;28;20525;-75
2021/01/03 12:26:55;;;;;;;51.67;23.73;;;7.90;55.00;;;;;;5052870;28;20104;-75
2021/01/03 12:29:23;;;;;;;51.47;22.85;;;7.90;54.90;;;;;;5066457;28;20058;-76
2021/01/03 12:31:51;;;;;;;45.05;21.88;;;7.90;55.00;;;;;;5080345;28;20025;-76
2021/01/03 12:34:20;;;;;;;48.42;23.00;;;7.90;55.10;;;;;;5072643;28;20036;-76
2021/01/03 12:36:46;;;;;;;39.88;19.67;;;7.90;54.50;;;;;;5072874;28;20035;-76
2021/01/03 12:39:15;;;;;;;42.60;21.10;;;7.90;54.70;;;;;;5073798;28;20111;-76
2021/01/03 12:41:41;;;;;;;43.50;21.08;;;8.00;55.40;;;;;;5060122;28;20025;-76
2021/01/03 12:44:09;;;;;;;44.05;22.13;;;8.00;54.60;;;;;;5058156;28;20047;-76
2021/01/03 12:46:39;;;;;;;41.03;19.15;;;8.00;54.60;;;;;;5072564;28;20048;-76
2021/01/03 12:49:09;;;;;;;45.15;20.80;;;8.00;54.70;;;;;;5073953;28;20074;-76
2021/01/03 12:51:36;;;;;;;44.28;21.70;;;8.00;54.10;;;;;;5061115;28;20032;-76
2021/01/03 12:54:02;;;;;;;33.70;17.42;;;7.90;53.60;;;;;;5053876;28;20058;-76
2021/01/03 12:56:32;;;;;;;37.03;18.67;;;7.90;53.70;;;;;;5053757;28;20047;-75
2021/01/03 12:59:03;;;;;;;37.75;19.08;;;7.90;53.80;;;;;;5053669;28;20478;-76
2021/01/03 13:01:34;;;;;;;34.15;16.70;;;7.90;53.80;;;;;;5053572;28;20060;-76
2021/01/03 13:04:02;;;;;;;35.85;17.85;;;7.90;54.20;;;;;;5053828;28;20111;-75